Time;durP1;ratioP1;P1;durP2;ratioP2;P2;SDS_P1;SDS_P2;PMS_P1;PMS_P2;Temp;Humidity;BMP_temperature;BMP_pressure;BME280_temperature;BME280_humidity;BME280_pressure;Samples;Min_cycle;Max_cycle;Signal;HPM_P1;HPM_P2
2021/05/20 00:00:34;;;;;;;0.2;0.2;;;;;;;;;;;;;
2021/05/20 00:02:59;;;;;;;0.2;0.2;;;;;;;;;;;;;
2021/05/20 00:05:24;;;;;;;0.3;0.3;;;;;;;;;;;;;
2021/05/20 00:07:49;;;;;;;0.6;0.3;;;;;;;;;;;;;
2021/05/20 00:10:16;;;;;;;0.4;0.3;;;;;;;;;;;;;
2021/05/20 00:12:43;;;;;;;0.1;0.1;;;;;;;;;;;;;
2021/05/20 00:15:07;;;;;;;1.2;0.2;;;;;;;;;;;;;
2021/05/20 00:17:33;;;;;;;0.1;0.1;;;;;;;;;;;;;
2021/05/20 00:19:57;;;;;;;0.2;0.2;;;;;;;;;;;;;
2021/05/20 00:22:28;;;;;;;0.5;0.3;;;;;;;;;;;;;
2021/05/20 00:24:50;;;;;;;0.3;0.3;;;;;;;;;;;;;
2021/05/20 00:27:15;;;;;;;0.2;0.2;;;;;;;;;;;;;
2021/05/20 00:29:40;;;;;;;0.8;0.3;;;;;;;;;;;;;
2021/05/20 00:32:05;;;;;;;0.3;0.3;;;;;;;;;;;;;
2021/05/20 00:34:30;;;;;;;0.4;0.3;;;;;;;;;;;;;
2021/05/20 00:36:56;;;;;;;0.3;0.1;;;;;;;;;;;;;
2021/05/20 00:39:21;;;;;;;0.3;0.3;;;;;;;;;;;;;
2021/05/20 00:41:46;;;;;;;0.2;0.2;;;;;;;;;;;;;
2021/05/20 00:44:11;;;;;;;0.1;0.1;;;;;;;;;;;;;
2021/05/20 00:46:36;;;;;;;0.1;0.1;;;;;;;;;;;;;
2021/05/20 00:49:09;;;;;;;0.3;0.3;;;;;;;;;;;;;
2021/05/20 00:51:26;;;;;;;1.4;0.4;;;;;;;;;;;;;
2021/05/20 00:53:52;;;;;;;0.7;0.5;;;;;;;;;;;;;
2021/05/20 00:56:17;;;;;;;0.7;0.5;;;;;;;;;;;;;
2021/05/20 00:58:42;;;;;;;0.2;0.2;;;;;;;;;;;;;
2021/05/20 01:01:07;;;;;;;0.3;0.3;;;;;;;;;;;;;
2021/05/20 01:03:32;;;;;;;0.4;0.4;;;;;;;;;;;;;
2021/05/20 01:06:16;;;;;;;0.7;0.3;;;;;;;;;;;;;
2021/05/20 01:08:41;;;;;;;0.2;0.2;;;;;;;;;;;;;
2021/05/20 01:11:07;;;;;;;0.6;0.4;;;;;;;;;;;;;
2021/05/20 01:13:32;;;;;;;1.2;0.3;;;;;;;;;;;;;
2021/05/20 01:15:57;;;;;;;0.3;0.3;;;;;;;;;;;;;
2021/05/20 01:18:24;;;;;;;0.1;0.1;;;;;;;;;;;;;
2021/05/20 01:20:49;;;;;;;0.3;0.3;;;;;;;;;;;;;
2021/05/20 01:23:14;;;;;;;0.2;0.2;;;;;;;;;;;;;
2021/05/20 01:25:39;;;;;;;0.4;0.3;;;;;;;;;;;;;
2021/05/20 01:28:05;;;;;;;0.5;0.5;;;;;;;;;;;;;
2021/05/20 01:30:30;;;;;;;0.4;0.3;;;;;;;;;;;;;
2021/05/20 01:32:55;;;;;;;0.4;0.4;;;;;;;;;;;;;
2021/05/20 01:35:20;;;;;;;0.6;0.4;;;;;;;;;;;;;
2021/05/20 01:37:45;;;;;;;0.1;0.1;;;;;;;;;;;;;
2021/05/20 01:40:12;;;;;;;1.3;0.4;;;;;;;;;;;;;
2021/05/20 01:42:38;;;;;;;0.2;0.2;;;;;;;;;;;;;
2021/05/20 01:45:04;;;;;;;0.2;0.2;;;;;;;;;;;;;
2021/05/20 01:47:29;;;;;;;0.3;0.3;;;;;;;;;;;;;
2021/05/20 01:49:58;;;;;;;0.4;0.4;;;;;;;;;;;;;
2021/05/20 01:52:21;;;;;;;0.5;0.5;;;;;;;;;;;;;
2021/05/20 01:54:46;;;;;;;0.3;0.3;;;;;;;;;;;;;
2021/05/20 01:57:11;;;;;;;0.5;0.4;;;;;;;;;;;;;
2021/05/20 01:59:38;;;;;;;0.3;0.2;;;;;;;;;;;;;
2021/05/20 02:02:04;;;;;;;0.2;0.2;;;;;;;;;;;;;
2021/05/20 02:04:29;;;;;;;0.1;0.1;;;;;;;;;;;;;
2021/05/20 02:06:54;;;;;;;0.3;0.3;;;;;;;;;;;;;
2021/05/20 02:09:20;;;;;;;2.1;0.3;;;;;;;;;;;;;
2021/05/20 02:11:45;;;;;;;0.3;0.1;;;;;;;;;;;;;
2021/05/20 02:14:10;;;;;;;0.3;0.1;;;;;;;;;;;;;
2021/05/20 02:16:35;;;;;;;0.2;0.2;;;;;;;;;;;;;
2021/05/20 02:19:01;;;;;;;0.3;0.3;;;;;;;;;;;;;
2021/05/20 02:21:26;;;;;;;0.1;0.1;;;;;;;;;;;;;
2021/05/20 02:23:52;;;;;;;0.1;0.1;;;;;;;;;;;;;
2021/05/20 02:26:17;;;;;;;0.2;0.2;;;;;;;;;;;;;
2021/05/20 02:28:44;;;;;;;0.4;0.3;;;;;;;;;;;;;
2021/05/20 02:31:08;;;;;;;1.1;0.5;;;;;;;;;;;;;
2021/05/20 02:33:33;;;;;;;0.2;0.2;;;;;;;;;;;;;
2021/05/20 02:35:58;;;;;;;1.9;0.2;;;;;;;;;;;;;
2021/05/20 02:38:23;;;;;;;0.3;0.3;;;;;;;;;;;;;
2021/05/20 02:40:49;;;;;;;0.4;0.3;;;;;;;;;;;;;
2021/05/20 02:43:14;;;;;;;0.2;0.2;;;;;;;;;;;;;
2021/05/20 02:45:40;;;;;;;0.6;0.2;;;;;;;;;;;;;
2021/05/20 02:48:05;;;;;;;0.4;0.4;;;;;;;;;;;;;
2021/05/20 02:50:32;;;;;;;0.4;0.3;;;;;;;;;;;;;
2021/05/20 02:52:57;;;;;;;0.2;0.2;;;;;;;;;;;;;
2021/05/20 02:55:22;;;;;;;0.7;0.5;;;;;;;;;;;;;
2021/05/20 02:57:49;;;;;;;0.7;0.5;;;;;;;;;;;;;
2021/05/20 03:00:13;;;;;;;0.8;0.4;;;;;;;;;;;;;
2021/05/20 03:02:38;;;;;;;1.8;1;;;;;;;;;;;;;
2021/05/20 03:05:03;;;;;;;1.7;0.9;;;;;;;;;;;;;
2021/05/20 03:07:29;;;;;;;0.4;0.3;;;;;;;;;;;;;
2021/05/20 03:09:54;;;;;;;0.7;0.4;;;;;;;;;;;;;
2021/05/20 03:12:20;;;;;;;0.4;0.4;;;;;;;;;;;;;
2021/05/20 03:14:45;;;;;;;0.1;0.1;;;;;;;;;;;;;
2021/05/20 03:17:11;;;;;;;0.3;0.3;;;;;;;;;;;;;
2021/05/20 03:19:35;;;;;;;0.5;0.5;;;;;;;;;;;;;
2021/05/20 03:22:00;;;;;;;0.3;0.3;;;;;;;;;;;;;
2021/05/20 03:24:25;;;;;;;0.6;0.4;;;;;;;;;;;;;
2021/05/20 03:26:50;;;;;;;1;0.3;;;;;;;;;;;;;
2021/05/20 03:29:15;;;;;;;0.2;0.2;;;;;;;;;;;;;
2021/05/20 03:31:40;;;;;;;0.7;0.3;;;;;;;;;;;;;
2021/05/20 03:34:05;;;;;;;0.3;0.3;;;;;;;;;;;;;
2021/05/20 03:36:32;;;;;;;0.3;0.3;;;;;;;;;;;;;
2021/05/20 03:38:57;;;;;;;0.3;0.3;;;;;;;;;;;;;
2021/05/20 03:41:23;;;;;;;0.7;0.5;;;;;;;;;;;;;
2021/05/20 03:43:48;;;;;;;0.6;0.3;;;;;;;;;;;;;
2021/05/20 03:46:14;;;;;;;0.4;0.3;;;;;;;;;;;;;
2021/05/20 03:48:39;;;;;;;0.2;0.2;;;;;;;;;;;;;
2021/05/20 03:51:05;;;;;;;0.5;0.5;;;;;;;;;;;;;
2021/05/20 03:53:34;;;;;;;0.3;0.3;;;;;;;;;;;;;
2021/05/20 03:55:59;;;;;;;0.8;0.5;;;;;;;;;;;;;
2021/05/20 03:58:25;;;;;;;0.6;0.4;;;;;;;;;;;;;
2021/05/20 04:02:30;;;;;;;0.2;0.2;;;;;;;8;87.59375;941.7352;;;;
2021/05/20 04:04:55;;;;;;;0.2;0.2;;;;;;;8.09;87.38574;941.7322;;;;
2021/05/20 04:07:21;;;;;;;0.8;0.5;;;;;;;8.2;87.18066;941.6459;;;;
2021/05/20 04:09:46;;;;;;;0.5;0.4;;;;;;;8.23;86.25488;941.7277;;;;
2021/05/20 04:12:12;;;;;;;0.3;0.3;;;;;;;8.24;86.18848;941.7622;;;;
2021/05/20 04:14:39;;;;;;;0.8;0.5;;;;;;;8.14;86.62305;941.8411;;;;
2021/05/20 04:17:07;;;;;;;0.8;0.5;;;;;;;8.03;87.12305;941.8187;;;;
2021/05/20 04:19:32;;;;;;;0.7;0.5;;;;;;;8.05;87.52344;941.8208;;;;
2021/05/20 04:21:59;;;;;;;0.2;0.2;;;;;;;8.1;87.0791;941.8235;;;;
2021/05/20 04:24:24;;;;;;;0.5;0.4;;;;;;;8.19;87.09863;941.9338;;;;
2021/05/20 04:26:52;;;;;;;0.7;0.2;;;;;;;8.3;87.23242;941.8237;;;;
2021/05/20 04:29:16;;;;;;;0.3;0.3;;;;;;;8.36;87.47461;942.001;;;;
2021/05/20 04:31:44;;;;;;;0.9;0.5;;;;;;;8.47;86.92676;942.0076;;;;
2021/05/20 04:34:09;;;;;;;0.9;0.3;;;;;;;8.43;85.58984;941.9514;;;;
2021/05/20 04:36:36;;;;;;;0.3;0.3;;;;;;;8.41;85.42578;941.9448;;;;
2021/05/20 04:39:01;;;;;;;0.7;0.4;;;;;;;8.42;85.37207;941.9684;;;;
2021/05/20 04:41:28;;;;;;;0.5;0.5;;;;;;;8.43;85.96484;942.029;;;;
2021/05/20 04:43:54;;;;;;;0.3;0.3;;;;;;;8.34;86.43555;942.0313;;;;
2021/05/20 04:46:19;;;;;;;1.2;0.3;;;;;;;8.3;86.96191;942.058;;;;
2021/05/20 04:48:47;;;;;;;0.1;0.1;;;;;;;8.35;87.03906;942.007;;;;
2021/05/20 04:51:12;;;;;;;0.2;0.2;;;;;;;8.38;86.35352;942.0444;;;;
2021/05/20 04:53:40;;;;;;;0.2;0.2;;;;;;;8.34;86.26465;942.0273;;;;
2021/05/20 04:56:05;;;;;;;0.6;0.5;;;;;;;8.38;86.18359;942.0522;;;;
2021/05/20 04:58:30;;;;;;;0.3;0.3;;;;;;;8.34;86.34473;942.09;;;;
2021/05/20 05:00:55;;;;;;;0.1;0.1;;;;;;;8.35;86.28906;942.1156;;;;
2021/05/20 05:03:21;;;;;;;0.3;0.3;;;;;;;8.38;85.91992;942.0966;;;;
2021/05/20 05:06:45;;;;;;;0.3;0.3;;;;;;;8.37;86.22461;942.1511;;;;
2021/05/20 05:09:13;;;;;;;1.9;0.5;;;;;;;8.56;85.80859;942.197;;;;
2021/05/20 05:11:38;;;;;;;0.2;0.2;;;;;;;8.62;85.59375;942.1805;;;;
2021/05/20 05:14:06;;;;;;;1.9;0.6;;;;;;;8.72;86.25195;942.248;;;;
2021/05/20 05:16:31;;;;;;;1;0.5;;;;;;;8.67;86.37793;942.2722;;;;
2021/05/20 05:18:58;;;;;;;0.6;0.5;;;;;;;8.79;86.44629;942.2447;;;;
2021/05/20 05:21:24;;;;;;;0.5;0.4;;;;;;;8.8;85.94824;942.2734;;;;
2021/05/20 05:23:53;;;;;;;1.9;0.9;;;;;;;9.12;85.64844;942.3589;;;;
2021/05/20 05:26:16;;;;;;;0.5;0.5;;;;;;;9.45;84.79102;942.3616;;;;
2021/05/20 05:28:41;;;;;;;0.3;0.3;;;;;;;;;;;;;
2021/05/20 05:31:08;;;;;;;0.4;0.4;;;;;;;;;;;;;
2021/05/20 05:33:31;;;;;;;1.6;1.1;;;;;;;;;;;;;
2021/05/20 05:35:57;;;;;;;1.1;0.9;;;;;;;;;;;;;
2021/05/20 05:38:22;;;;;;;0.7;0.5;;;;;;;;;;;;;
2021/05/20 05:40:47;;;;;;;0.7;0.5;;;;;;;;;;;;;
2021/05/20 05:43:14;;;;;;;0.3;0.3;;;;;;;;;;;;;
2021/05/20 05:45:38;;;;;;;0.6;0.3;;;;;;;;;;;;;
2021/05/20 05:48:04;;;;;;;0.4;0.4;;;;;;;;;;;;;
2021/05/20 05:50:28;;;;;;;0.2;0.2;;;;;;;;;;;;;
2021/05/20 05:52:53;;;;;;;2;0.6;;;;;;;;;;;;;
2021/05/20 05:55:18;;;;;;;0.4;0.4;;;;;;;;;;;;;
2021/05/20 05:57:44;;;;;;;1.1;0.5;;;;;;;;;;;;;
2021/05/20 06:00:10;;;;;;;0.5;0.4;;;;;;;;;;;;;
2021/05/20 06:02:35;;;;;;;0.7;0.7;;;;;;;;;;;;;
2021/05/20 06:05:01;;;;;;;0.6;0.6;;;;;;;;;;;;;
2021/05/20 06:07:26;;;;;;;0.8;0.7;;;;;;;;;;;;;
2021/05/20 06:09:51;;;;;;;1.4;0.7;;;;;;;;;;;;;
2021/05/20 06:12:16;;;;;;;0.3;0.3;;;;;;;;;;;;;
2021/05/20 06:14:41;;;;;;;0.4;0.3;;;;;;;;;;;;;
2021/05/20 06:17:06;;;;;;;0.1;0.1;;;;;;;;;;;;;
2021/05/20 06:19:31;;;;;;;1.7;0.4;;;;;;;;;;;;;
2021/05/20 06:21:56;;;;;;;0.5;0.5;;;;;;;;;;;;;
2021/05/20 06:24:22;;;;;;;1.6;0.4;;;;;;;;;;;;;
2021/05/20 06:26:48;;;;;;;0.5;0.4;;;;;;;;;;;;;
2021/05/20 06:29:13;;;;;;;1.7;0.8;;;;;;;;;;;;;
2021/05/20 06:31:39;;;;;;;0.4;0.3;;;;;;;;;;;;;
2021/05/20 06:34:04;;;;;;;0.5;0.2;;;;;;;;;;;;;
2021/05/20 06:36:29;;;;;;;0.3;0.3;;;;;;;;;;;;;
2021/05/20 06:38:54;;;;;;;1.3;0.6;;;;;;;;;;;;;
2021/05/20 06:41:19;;;;;;;0.4;0.3;;;;;;;;;;;;;
2021/05/20 06:43:44;;;;;;;0.4;0.4;;;;;;;;;;;;;
2021/05/20 06:46:09;;;;;;;0.3;0.2;;;;;;;;;;;;;
2021/05/20 06:48:34;;;;;;;0.7;0.3;;;;;;;;;;;;;
2021/05/20 06:50:59;;;;;;;0.5;0.4;;;;;;;;;;;;;
2021/05/20 06:53:27;;;;;;;0.5;0.4;;;;;;;;;;;;;
2021/05/20 06:55:52;;;;;;;0.2;0.2;;;;;;;;;;;;;
2021/05/20 07:00:41;;;;;;;0.4;0.3;;;;;;;;;;;;;
2021/05/20 07:03:10;;;;;;;0.5;0.3;;;;;;;;;;;;;
2021/05/20 07:05:32;;;;;;;0.2;0.2;;;;;;;;;;;;;
2021/05/20 07:07:57;;;;;;;0.2;0.2;;;;;;;;;;;;;
2021/05/20 07:10:23;;;;;;;0;0;;;;;;;;;;;;;
2021/05/20 07:12:48;;;;;;;1.9;0.2;;;;;;;;;;;;;
2021/05/20 07:15:13;;;;;;;0;0;;;;;;;;;;;;;
2021/05/20 07:17:38;;;;;;;0.7;0.2;;;;;;;;;;;;;
2021/05/20 07:20:03;;;;;;;0.1;0.1;;;;;;;;;;;;;
2021/05/20 07:22:29;;;;;;;1.5;0.2;;;;;;;;;;;;;
2021/05/20 07:24:54;;;;;;;0.2;0.2;;;;;;;;;;;;;
2021/05/20 07:27:20;;;;;;;0;0;;;;;;;;;;;;;
2021/05/20 07:29:45;;;;;;;0.1;0;;;;;;;;;;;;;
2021/05/20 07:32:15;;;;;;;0.1;0.1;;;;;;;;;;;;;
2021/05/20 07:34:35;;;;;;;0.2;0.2;;;;;;;;;;;;;
2021/05/20 07:37:00;;;;;;;0;0;;;;;;;;;;;;;
2021/05/20 07:39:25;;;;;;;0.1;0;;;;;;;;;;;;;
2021/05/20 07:41:50;;;;;;;0.4;0.2;;;;;;;;;;;;;
2021/05/20 07:44:16;;;;;;;0;0;;;;;;;;;;;;;
2021/05/20 07:46:42;;;;;;;0;0;;;;;;;;;;;;;
2021/05/20 07:49:07;;;;;;;0;0;;;;;;;;;;;;;
2021/05/20 07:51:33;;;;;;;0.1;0.1;;;;;;;;;;;;;
2021/05/20 07:53:58;;;;;;;0.2;0.2;;;;;;;;;;;;;
2021/05/20 07:56:26;;;;;;;0;0;;;;;;;;;;;;;
2021/05/20 07:58:53;;;;;;;0;0;;;;;;;;;;;;;
2021/05/20 08:01:15;;;;;;;0.1;0.1;;;;;;;;;;;;;
2021/05/20 08:03:43;;;;;;;0;0;;;;;;;;;;;;;
2021/05/20 08:06:11;;;;;;;0;0;;;;;;;;;;;;;
2021/05/20 08:08:34;;;;;;;0;0;;;;;;;;;;;;;
2021/05/20 08:10:58;;;;;;;0;0;;;;;;;;;;;;;
2021/05/20 08:13:21;;;;;;;0;0;;;;;;;;;;;;;
2021/05/20 08:15:46;;;;;;;0;0;;;;;;;;;;;;;
2021/05/20 08:18:16;;;;;;;0;0;;;;;;;;;;;;;
2021/05/20 08:20:40;;;;;;;0;0;;;;;;;;;;;;;
2021/05/20 08:23:05;;;;;;;0.2;0.1;;;;;;;;;;;;;
2021/05/20 08:25:30;;;;;;;0;0;;;;;;;;;;;;;
2021/05/20 08:27:55;;;;;;;0;0;;;;;;;;;;;;;
2021/05/20 08:30:20;;;;;;;0;0;;;;;;;;;;;;;
2021/05/20 08:32:46;;;;;;;0;0;;;;;;;;;;;;;
2021/05/20 08:35:11;;;;;;;0;0;;;;;;;;;;;;;
2021/05/20 08:37:38;;;;;;;0.8;0.2;;;;;;;;;;;;;
2021/05/20 08:40:01;;;;;;;0.2;0;;;;;;;;;;;;;
2021/05/20 08:42:26;;;;;;;0;0;;;;;;;;;;;;;
2021/05/20 08:44:53;;;;;;;0;0;;;;;;;;;;;;;
2021/05/20 08:47:18;;;;;;;0;0;;;;;;;;;;;;;
2021/05/20 08:49:45;;;;;;;0;0;;;;;;;;;;;;;
2021/05/20 08:52:12;;;;;;;0;0;;;;;;;;;;;;;
2021/05/20 08:54:33;;;;;;;0;0;;;;;;;;;;;;;
2021/05/20 08:56:58;;;;;;;0;0;;;;;;;;;;;;;
2021/05/20 08:59:24;;;;;;;0;0;;;;;;;;;;;;;
2021/05/20 09:01:49;;;;;;;0;0;;;;;;;;;;;;;
2021/05/20 09:04:14;;;;;;;0.4;0;;;;;;;;;;;;;
2021/05/20 09:06:40;;;;;;;0;0;;;;;;;;;;;;;
2021/05/20 09:09:05;;;;;;;0;0;;;;;;;;;;;;;
2021/05/20 09:11:30;;;;;;;0;0;;;;;;;;;;;;;
2021/05/20 09:13:55;;;;;;;0;0;;;;;;;;;;;;;
2021/05/20 09:16:20;;;;;;;0;0;;;;;;;;;;;;;
2021/05/20 09:18:45;;;;;;;0;0;;;;;;;;;;;;;
2021/05/20 09:21:11;;;;;;;0;0;;;;;;;;;;;;;
2021/05/20 09:23:36;;;;;;;0;0;;;;;;;;;;;;;
2021/05/20 09:26:01;;;;;;;0;0;;;;;;;;;;;;;
2021/05/20 09:28:26;;;;;;;0;0;;;;;;;;;;;;;
2021/05/20 09:30:51;;;;;;;0;0;;;;;;;;;;;;;
2021/05/20 09:33:19;;;;;;;0;0;;;;;;;;;;;;;
2021/05/20 09:35:42;;;;;;;0;0;;;;;;;;;;;;;
2021/05/20 09:38:09;;;;;;;0;0;;;;;;;;;;;;;
2021/05/20 09:40:33;;;;;;;0;0;;;;;;;;;;;;;
2021/05/20 09:42:59;;;;;;;0;0;;;;;;;;;;;;;
2021/05/20 09:45:24;;;;;;;0.7;0.4;;;;;;;;;;;;;
2021/05/20 09:47:50;;;;;;;0;0;;;;;;;;;;;;;
2021/05/20 09:50:15;;;;;;;0;0;;;;;;;;;;;;;
2021/05/20 09:52:40;;;;;;;0.3;0.1;;;;;;;;;;;;;
2021/05/20 09:55:05;;;;;;;0;0;;;;;;;;;;;;;
2021/05/20 09:57:30;;;;;;;0.1;0.1;;;;;;;;;;;;;
2021/05/20 09:59:55;;;;;;;0;0;;;;;;;;;;;;;
2021/05/20 10:02:20;;;;;;;0;0;;;;;;;;;;;;;
2021/05/20 10:04:46;;;;;;;0;0;;;;;;;;;;;;;
2021/05/20 10:07:11;;;;;;;0.1;0.1;;;;;;;;;;;;;
2021/05/20 10:09:36;;;;;;;0;0;;;;;;;;;;;;;
2021/05/20 10:12:03;;;;;;;0;0;;;;;;;;;;;;;
2021/05/20 10:14:26;;;;;;;0;0;;;;;;;;;;;;;
2021/05/20 10:16:52;;;;;;;0.3;0.1;;;;;;;;;;;;;
2021/05/20 10:19:17;;;;;;;0.1;0;;;;;;;;;;;;;
2021/05/20 10:21:42;;;;;;;0;0;;;;;;;;;;;;;
2021/05/20 10:24:19;;;;;;;0;0;;;;;;;;;;;;;
2021/05/20 10:26:44;;;;;;;0;0;;;;;;;;;;;;;
2021/05/20 10:29:09;;;;;;;0;0;;;;;;;;;;;;;
2021/05/20 10:31:34;;;;;;;0;0;;;;;;;;;;;;;
2021/05/20 10:33:59;;;;;;;0;0;;;;;;;;;;;;;
2021/05/20 10:36:26;;;;;;;0;0;;;;;;;;;;;;;
2021/05/20 10:38:51;;;;;;;0;0;;;;;;;;;;;;;
2021/05/20 10:41:17;;;;;;;0;0;;;;;;;;;;;;;
2021/05/20 10:43:41;;;;;;;0.1;0.1;;;;;;;;;;;;;
2021/05/20 10:46:06;;;;;;;0;0;;;;;;;;;;;;;
2021/05/20 10:48:31;;;;;;;0;0;;;;;;;;;;;;;
2021/05/20 10:50:56;;;;;;;0;0;;;;;;;;;;;;;
2021/05/20 10:53:22;;;;;;;0;0;;;;;;;;;;;;;
2021/05/20 10:55:47;;;;;;;0;0;;;;;;;;;;;;;
2021/05/20 10:58:12;;;;;;;0.5;0.3;;;;;;;;;;;;;
2021/05/20 11:00:38;;;;;;;0;0;;;;;;;;;;;;;
2021/05/20 11:03:04;;;;;;;0.4;0.1;;;;;;;;;;;;;
2021/05/20 11:05:29;;;;;;;0;0;;;;;;;;;;;;;
2021/05/20 11:07:54;;;;;;;0.2;0;;;;;;;;;;;;;
2021/05/20 11:10:21;;;;;;;0;0;;;;;;;;;;;;;
2021/05/20 11:12:45;;;;;;;0.1;0.1;;;;;;;;;;;;;
2021/05/20 11:15:10;;;;;;;0.5;0.2;;;;;;;;;;;;;
2021/05/20 11:17:36;;;;;;;0;0;;;;;;;;;;;;;
2021/05/20 11:20:01;;;;;;;0.1;0;;;;;;;;;;;;;
2021/05/20 11:22:26;;;;;;;0.1;0;;;;;;;;;;;;;
2021/05/20 11:24:51;;;;;;;0;0;;;;;;;;;;;;;
2021/05/20 11:27:16;;;;;;;0;0;;;;;;;;;;;;;
2021/05/20 11:29:44;;;;;;;0.1;0.1;;;;;;;;;;;;;
2021/05/20 11:32:15;;;;;;;0;0;;;;;;;;;;;;;
2021/05/20 11:34:59;;;;;;;0;0;;;;;;;;;;;;;
2021/05/20 11:37:00;;;;;;;0;0;;;;;;;;;;;;;
2021/05/20 11:39:24;;;;;;;0;0;;;;;;;;;;;;;
2021/05/20 11:41:50;;;;;;;0.1;0.1;;;;;;;;;;;;;
2021/05/20 11:44:15;;;;;;;0.6;0.1;;;;;;;;;;;;;
2021/05/20 11:46:40;;;;;;;0;0;;;;;;;;;;;;;
2021/05/20 11:49:05;;;;;;;0;0;;;;;;;;;;;;;
2021/05/20 11:51:30;;;;;;;0;0;;;;;;;;;;;;;
2021/05/20 11:53:56;;;;;;;0;0;;;;;;;;;;;;;
2021/05/20 11:56:21;;;;;;;0;0;;;;;;;;;;;;;
2021/05/20 11:58:46;;;;;;;0;0;;;;;;;;;;;;;
2021/05/20 12:01:13;;;;;;;0;0;;;;;;;;;;;;;
2021/05/20 12:03:37;;;;;;;0;0;;;;;;;;;;;;;
2021/05/20 12:06:02;;;;;;;0;0;;;;;;;;;;;;;
2021/05/20 12:08:28;;;;;;;0;0;;;;;;;;;;;;;
2021/05/20 12:10:53;;;;;;;0;0;;;;;;;;;;;;;
2021/05/20 12:13:19;;;;;;;0;0;;;;;;;;;;;;;
2021/05/20 12:15:44;;;;;;;0;0;;;;;;;;;;;;;
2021/05/20 12:18:09;;;;;;;0;0;;;;;;;;;;;;;
2021/05/20 12:20:34;;;;;;;0;0;;;;;;;;;;;;;
2021/05/20 12:23:01;;;;;;;0.5;0.3;;;;;;;;;;;;;
2021/05/20 12:25:26;;;;;;;0.1;0.1;;;;;;;;;;;;;
2021/05/20 12:27:51;;;;;;;0.1;0.1;;;;;;;;;;;;;
2021/05/20 12:30:16;;;;;;;0.5;0.2;;;;;;;;;;;;;
2021/05/20 12:32:42;;;;;;;1.1;0.4;;;;;;;;;;;;;
2021/05/20 12:35:07;;;;;;;0.8;0.5;;;;;;;;;;;;;
2021/05/20 12:37:33;;;;;;;0.1;0.1;;;;;;;;;;;;;
2021/05/20 12:39:58;;;;;;;0.7;0.4;;;;;;;;;;;;;
2021/05/20 12:42:23;;;;;;;0.2;0.1;;;;;;;;;;;;;
2021/05/20 12:44:48;;;;;;;0;0;;;;;;;;;;;;;
2021/05/20 12:47:14;;;;;;;0;0;;;;;;;;;;;;;
2021/05/20 12:49:40;;;;;;;0.1;0.1;;;;;;;;;;;;;
2021/05/20 12:52:05;;;;;;;0;0;;;;;;;;;;;;;
2021/05/20 12:54:31;;;;;;;3.1;0.1;;;;;;;;;;;;;
2021/05/20 12:56:56;;;;;;;2.7;0.1;;;;;;;;;;;;;
2021/05/20 12:59:21;;;;;;;0;0;;;;;;;;;;;;;
2021/05/20 13:01:47;;;;;;;0.5;0.3;;;;;;;;;;;;;
2021/05/20 13:04:12;;;;;;;0.3;0.1;;;;;;;;;;;;;
2021/05/20 13:06:37;;;;;;;0;0;;;;;;;;;;;;;
2021/05/20 13:09:02;;;;;;;0;0;;;;;;;;;;;;;
2021/05/20 13:11:28;;;;;;;0.1;0.1;;;;;;;;;;;;;
2021/05/20 13:13:53;;;;;;;0;0;;;;;;;;;;;;;
2021/05/20 13:16:23;;;;;;;0.4;0.3;;;;;;;;;;;;;
2021/05/20 13:19:05;;;;;;;0.4;0.3;;;;;;;;;;;;;
2021/05/20 13:23:33;;;;;;;0;0;;;;;;;;;;;;;
2021/05/20 13:25:58;;;;;;;0;0;;;;;;;;;;;;;
2021/05/20 13:28:25;;;;;;;0;0;;;;;;;;;;;;;
2021/05/20 13:30:53;;;;;;;0.5;0.2;;;;;;;;;;;;;
2021/05/20 13:33:23;;;;;;;0;0;;;;;;;;;;;;;
2021/05/20 13:35:38;;;;;;;0;0;;;;;;;;;;;;;
2021/05/20 13:38:04;;;;;;;1.7;0.6;;;;;;;;;;;;;
2021/05/20 13:40:29;;;;;;;0;0;;;;;;;;;;;;;
2021/05/20 13:42:54;;;;;;;0.1;0;;;;;;;;;;;;;
2021/05/20 13:45:21;;;;;;;0;0;;;;;;;;;;;;;
2021/05/20 13:47:44;;;;;;;0.1;0.1;;;;;;;;;;;;;
2021/05/20 13:50:10;;;;;;;0.1;0.1;;;;;;;;;;;;;
2021/05/20 13:52:38;;;;;;;0;0;;;;;;;;;;;;;
2021/05/20 13:55:00;;;;;;;0.1;0;;;;;;;;;;;;;
2021/05/20 13:57:25;;;;;;;0;0;;;;;;;;;;;;;
2021/05/20 13:59:50;;;;;;;0.3;0.1;;;;;;;;;;;;;
2021/05/20 14:02:16;;;;;;;0;0;;;;;;;;;;;;;
2021/05/20 14:04:40;;;;;;;0;0;;;;;;;;;;;;;
2021/05/20 14:07:05;;;;;;;0;0;;;;;;;;;;;;;
2021/05/20 14:09:30;;;;;;;0.3;0.3;;;;;;;;;;;;;
2021/05/20 14:11:56;;;;;;;0.7;0.6;;;;;;;;;;;;;
2021/05/20 14:14:21;;;;;;;0;0;;;;;;;;;;;;;
2021/05/20 14:16:47;;;;;;;0;0;;;;;;;;;;;;;
2021/05/20 14:19:12;;;;;;;0;0;;;;;;;;;;;;;
2021/05/20 14:21:39;;;;;;;0;0;;;;;;;;;;;;;
2021/05/20 14:24:04;;;;;;;0;0;;;;;;;;;;;;;
2021/05/20 14:26:30;;;;;;;0.1;0;;;;;;;;;;;;;
2021/05/20 14:28:55;;;;;;;0;0;;;;;;;;;;;;;
2021/05/20 14:31:21;;;;;;;0;0;;;;;;;;;;;;;
2021/05/20 14:33:46;;;;;;;0.5;0.1;;;;;;;;;;;;;
2021/05/20 14:36:11;;;;;;;0.4;0.1;;;;;;;;;;;;;
2021/05/20 14:38:37;;;;;;;0.2;0.1;;;;;;;;;;;;;
2021/05/20 14:41:01;;;;;;;0.2;0;;;;;;;;;;;;;
2021/05/20 14:43:27;;;;;;;0.1;0;;;;;;;;;;;;;
2021/05/20 14:45:52;;;;;;;0;0;;;;;;;;;;;;;
2021/05/20 14:48:19;;;;;;;0;0;;;;;;;;;;;;;
2021/05/20 14:50:50;;;;;;;0;0;;;;;;;;;;;;;
2021/05/20 14:53:12;;;;;;;0;0;;;;;;;;;;;;;
2021/05/20 14:55:44;;;;;;;0.1;0.1;;;;;;;;;;;;;
2021/05/20 15:05:19;;;;;;;0;0;;;;;;;;;;;;;
2021/05/20 15:07:43;;;;;;;0;0;;;;;;;;;;;;;
2021/05/20 15:10:14;;;;;;;0;0;;;;;;;;;;;;;
2021/05/20 15:12:36;;;;;;;0;0;;;;;;;;;;;;;
2021/05/20 15:15:03;;;;;;;0.1;0.1;;;;;;;;;;;;;
2021/05/20 15:17:24;;;;;;;0.4;0.3;;;;;;;;;;;;;
2021/05/20 15:19:47;;;;;;;0;0;;;;;;;;;;;;;
2021/05/20 15:22:14;;;;;;;0;0;;;;;;;;;;;;;
2021/05/20 15:24:39;;;;;;;0;0;;;;;;;;;;;;;
2021/05/20 15:27:07;;;;;;;0.3;0;;;;;;;;;;;;;
2021/05/20 15:29:32;;;;;;;0;0;;;;;;;;;;;;;
2021/05/20 15:31:58;;;;;;;0;0;;;;;;;;;;;;;
2021/05/20 15:34:23;;;;;;;0;0;;;;;;;;;;;;;
2021/05/20 15:36:49;;;;;;;0;0;;;;;;;;;;;;;
2021/05/20 15:39:13;;;;;;;0;0;;;;;;;;;;;;;
2021/05/20 15:41:38;;;;;;;0;0;;;;;;;;;;;;;
2021/05/20 15:44:04;;;;;;;0;0;;;;;;;;;;;;;
2021/05/20 15:46:30;;;;;;;0.1;0.1;;;;;;;;;;;;;
2021/05/20 15:51:22;;;;;;;2.2;0.3;;;;;;;;;;;;;
2021/05/20 15:53:46;;;;;;;0;0;;;;;;;;;;;;;
2021/05/20 15:56:11;;;;;;;0.1;0.1;;;;;;;;;;;;;
2021/05/20 15:59:05;;;;;;;0.3;0.2;;;;;;;;;;;;;
2021/05/20 16:01:20;;;;;;;0.1;0.1;;;;;;;;;;;;;
2021/05/20 16:03:47;;;;;;;0.3;0.2;;;;;;;;;;;;;
2021/05/20 16:06:10;;;;;;;0.4;0;;;;;;;;;;;;;
2021/05/20 16:08:38;;;;;;;0.5;0.2;;;;;;;;;;;;;
2021/05/20 16:11:13;;;;;;;0.1;0.1;;;;;;;;;;;;;
2021/05/20 16:13:49;;;;;;;0.1;0.1;;;;;;;;;;;;;
2021/05/20 16:15:52;;;;;;;0.1;0.1;;;;;;;;;;;;;
2021/05/20 16:18:17;;;;;;;0.4;0.3;;;;;;;;;;;;;
2021/05/20 16:20:43;;;;;;;0;0;;;;;;;;;;;;;
2021/05/20 16:23:11;;;;;;;0.2;0.2;;;;;;;;;;;;;
2021/05/20 16:28:15;;;;;;;0.1;0.1;;;;;;;;;;;;;
2021/05/20 16:37:39;;;;;;;0.2;0.2;;;;;;;;;;;;;
2021/05/20 16:40:03;;;;;;;0.4;0.3;;;;;;;;;;;;;
2021/05/20 16:42:28;;;;;;;0.4;0.2;;;;;;;;;;;;;
2021/05/20 16:44:54;;;;;;;0.2;0.1;;;;;;;;;;;;;
2021/05/20 16:47:19;;;;;;;0.5;0.3;;;;;;;;;;;;;
2021/05/20 16:49:44;;;;;;;0.4;0.2;;;;;;;;;;;;;
2021/05/20 16:52:09;;;;;;;0.2;0.2;;;;;;;;;;;;;
2021/05/20 16:54:37;;;;;;;0.5;0.1;;;;;;;;;;;;;
2021/05/20 16:57:16;;;;;;;0.1;0.1;;;;;;;;;;;;;
2021/05/20 16:59:26;;;;;;;0.1;0.1;;;;;;;;;;;;;
2021/05/20 17:01:51;;;;;;;0.4;0.2;;;;;;;;;;;;;
2021/05/20 17:04:16;;;;;;;0.1;0.1;;;;;;;;;;;;;
2021/05/20 17:06:41;;;;;;;0.1;0.1;;;;;;;;;;;;;
2021/05/20 17:09:06;;;;;;;0.8;0.2;;;;;;;;;;;;;
2021/05/20 17:11:32;;;;;;;2.9;0.5;;;;;;;;;;;;;
2021/05/20 17:13:56;;;;;;;0.4;0.4;;;;;;;;;;;;;
2021/05/20 17:16:22;;;;;;;3.1;0.9;;;;;;;;;;;;;
2021/05/20 17:18:47;;;;;;;0.9;0.3;;;;;;;;;;;;;
2021/05/20 17:21:12;;;;;;;0.6;0.3;;;;;;;;;;;;;
2021/05/20 17:23:38;;;;;;;2.1;1.2;;;;;;;;;;;;;
2021/05/20 17:26:03;;;;;;;1;0.3;;;;;;;;;;;;;
2021/05/20 17:28:29;;;;;;;0.9;0.6;;;;;;;;;;;;;
2021/05/20 17:30:55;;;;;;;0.4;0.4;;;;;;;;;;;;;
2021/05/20 17:33:20;;;;;;;0.6;0.5;;;;;;;;;;;;;
2021/05/20 17:35:46;;;;;;;0.5;0.4;;;;;;;;;;;;;
2021/05/20 17:38:10;;;;;;;0.1;0.1;;;;;;;;;;;;;
2021/05/20 17:40:35;;;;;;;0.2;0.2;;;;;;;;;;;;;
2021/05/20 17:43:02;;;;;;;0.7;0.4;;;;;;;;;;;;;
2021/05/20 17:45:27;;;;;;;0.8;0.6;;;;;;;;;;;;;
2021/05/20 17:47:53;;;;;;;0.3;0.3;;;;;;;;;;;;;
2021/05/20 17:50:17;;;;;;;2.9;0.7;;;;;;;;;;;;;
2021/05/20 17:52:42;;;;;;;0.4;0.4;;;;;;;;;;;;;
2021/05/20 17:55:08;;;;;;;0.3;0.3;;;;;;;;;;;;;
2021/05/20 17:57:33;;;;;;;1.2;0.9;;;;;;;;;;;;;
2021/05/20 18:00:05;;;;;;;0.5;0.5;;;;;;;;;;;;;
2021/05/20 18:02:24;;;;;;;0.9;0.7;;;;;;;;;;;;;
2021/05/20 18:04:49;;;;;;;0.1;0.1;;;;;;;;;;;;;
2021/05/20 18:07:14;;;;;;;0.2;0.2;;;;;;;;;;;;;
2021/05/20 18:09:41;;;;;;;0.3;0.3;;;;;;;;;;;;;
2021/05/20 18:12:09;;;;;;;0.1;0.1;;;;;;;;;;;;;
2021/05/20 18:14:33;;;;;;;0.5;0.3;;;;;;;;;;;;;
2021/05/20 18:17:02;;;;;;;0.1;0.1;;;;;;;;;;;;;
2021/05/20 18:19:28;;;;;;;0.4;0.3;;;;;;;;;;;;;
2021/05/20 18:22:14;;;;;;;1.1;0.3;;;;;;;;;;;;;
2021/05/20 18:24:10;;;;;;;0.4;0.4;;;;;;;;;;;;;
2021/05/20 18:26:35;;;;;;;0.8;0.5;;;;;;;;;;;;;
2021/05/20 18:29:00;;;;;;;1.4;0.7;;;;;;;;;;;;;
2021/05/20 18:31:29;;;;;;;1;0.6;;;;;;;;;;;;;
2021/05/20 18:33:51;;;;;;;0.6;0.6;;;;;;;;;;;;;
2021/05/20 18:36:17;;;;;;;2.1;0.9;;;;;;;;;;;;;
2021/05/20 18:38:42;;;;;;;1.3;1;;;;;;;;;;;;;
2021/05/20 18:41:13;;;;;;;1.3;0.9;;;;;;;;;;;;;
2021/05/20 18:43:36;;;;;;;1.6;0.6;;;;;;;;;;;;;
2021/05/20 18:45:59;;;;;;;0.5;0.5;;;;;;;;;;;;;
2021/05/20 18:48:25;;;;;;;1.6;0.8;;;;;;;;;;;;;
2021/05/20 18:50:50;;;;;;;1.7;1.1;;;;;;;;;;;;;
2021/05/20 18:53:16;;;;;;;1.5;1.2;;;;;;;;;;;;;
2021/05/20 18:55:42;;;;;;;11.2;0.8;;;;;;;;;;;;;
2021/05/20 18:58:07;;;;;;;0.8;0.6;;;;;;;;;;;;;
2021/05/20 19:00:33;;;;;;;0.6;0.6;;;;;;;;;;;;;
2021/05/20 19:02:58;;;;;;;0.7;0.6;;;;;;;;;;;;;
2021/05/20 19:05:27;;;;;;;0.6;0.6;;;;;;;;;;;;;
2021/05/20 19:07:57;;;;;;;1;0.9;;;;;;;;;;;;;
2021/05/20 19:10:15;;;;;;;0.6;0.6;;;;;;;;;;;;;
2021/05/20 19:12:40;;;;;;;0.3;0.3;;;;;;;;;;;;;
2021/05/20 19:15:07;;;;;;;0.4;0.3;;;;;;;;;;;;;
2021/05/20 19:17:33;;;;;;;9.2;0.5;;;;;;;;;;;;;
2021/05/20 19:19:58;;;;;;;0.4;0.2;;;;;;;;;;;;;
2021/05/20 19:22:27;;;;;;;1;0.7;;;;;;;;;;;;;
2021/05/20 19:24:46;;;;;;;1.6;0.7;;;;;;;;;;;;;
2021/05/20 19:27:11;;;;;;;1.7;0.7;;;;;;;;;;;;;
2021/05/20 19:29:38;;;;;;;0.9;0.8;;;;;;;;;;;;;
2021/05/20 19:32:07;;;;;;;0.9;0.4;;;;;;;;;;;;;
2021/05/20 19:34:27;;;;;;;2.2;0.6;;;;;;;;;;;;;
2021/05/20 19:36:58;;;;;;;0.7;0.6;;;;;;;;;;;;;
2021/05/20 19:39:21;;;;;;;0.7;0.7;;;;;;;;;;;;;
2021/05/20 19:41:45;;;;;;;0.8;0.6;;;;;;;;;;;;;
2021/05/20 19:44:10;;;;;;;0.4;0.3;;;;;;;;;;;;;
2021/05/20 19:46:36;;;;;;;1;0.6;;;;;;;;;;;;;
2021/05/20 19:49:02;;;;;;;0.8;0.4;;;;;;;;;;;;;
2021/05/20 19:51:29;;;;;;;4.4;0.6;;;;;;;;;;;;;
2021/05/20 19:54:00;;;;;;;0.1;0.1;;;;;;;;;;;;;
2021/05/20 20:01:10;;;;;;;0.1;0.1;;;;;;;;;;;;;
2021/05/20 20:03:37;;;;;;;0.3;0.2;;;;;;;;;;;;;
2021/05/20 20:06:16;;;;;;;1.1;0.5;;;;;;;;;;;;;
2021/05/20 20:08:43;;;;;;;0.2;0.2;;;;;;;;;;;;;
2021/05/20 20:10:52;;;;;;;0.7;0.7;;;;;;;;;;;;;
2021/05/20 20:13:18;;;;;;;1.6;1.1;;;;;;;;;;;;;
2021/05/20 20:15:42;;;;;;;1.7;1.1;;;;;;;;;;;;;
2021/05/20 20:18:10;;;;;;;2.4;1.7;;;;;;;;;;;;;
2021/05/20 20:20:35;;;;;;;1.8;1.1;;;;;;;;;;;;;
2021/05/20 20:22:59;;;;;;;1.1;0.6;;;;;;;;;;;;;
2021/05/20 20:25:24;;;;;;;2.2;1;;;;;;;;;;;;;
2021/05/20 20:27:55;;;;;;;2.5;1.5;;;;;;;;;;;;;
2021/05/20 20:32:39;;;;;;;0.6;0.6;;;;;;;;;;;;;
2021/05/20 20:36:16;;;;;;;1.1;0.3;;;;;;;;;;;;;
2021/05/20 20:37:56;;;;;;;1.1;0.4;;;;;;;;;;;;;
2021/05/20 20:42:22;;;;;;;2.1;0.8;;;;;;;;;;;;;
2021/05/20 20:44:47;;;;;;;3.4;0.9;;;;;;;;;;;;;
2021/05/20 20:47:14;;;;;;;0.6;0.4;;;;;;;;;;;;;
2021/05/20 20:49:37;;;;;;;0.3;0.3;;;;;;;;;;;;;
2021/05/20 20:52:02;;;;;;;0.4;0.4;;;;;;;;;;;;;
2021/05/20 20:54:27;;;;;;;0.3;0.2;;;;;;;;;;;;;
2021/05/20 20:56:53;;;;;;;0.4;0.4;;;;;;;;;;;;;